createdAt,value
2018-12-06T00:01:23.933Z,3.80
2018-12-06T00:03:51.439Z,3.80
2018-12-06T00:06:19.026Z,3.90
2018-12-06T00:08:46.510Z,3.90
2018-12-06T00:11:13.967Z,3.80
2018-12-06T00:13:41.409Z,3.80
2018-12-06T00:16:08.869Z,3.70
2018-12-06T00:18:36.375Z,3.70
2018-12-06T00:21:03.886Z,3.70
2018-12-06T00:23:31.381Z,3.80
2018-12-06T00:25:58.913Z,3.80
2018-12-06T00:28:26.350Z,3.80
2018-12-06T00:30:53.829Z,3.80
2018-12-06T00:33:21.894Z,3.80
2018-12-06T00:35:49.329Z,3.80
2018-12-06T00:38:16.812Z,3.80
2018-12-06T00:40:44.250Z,3.80
2018-12-06T00:43:11.942Z,3.80
2018-12-06T00:45:39.407Z,3.80
2018-12-06T00:48:06.945Z,3.80
2018-12-06T00:50:35.619Z,3.80
2018-12-06T00:53:03.391Z,3.80
2018-12-06T00:55:31.087Z,3.80
2018-12-06T00:57:58.538Z,3.80
2018-12-06T01:00:26.025Z,3.80
2018-12-06T01:02:54.408Z,3.80
2018-12-06T01:05:21.931Z,3.80
2018-12-06T01:07:49.671Z,3.80
2018-12-06T01:10:17.618Z,3.80
2018-12-06T01:12:45.094Z,3.80
2018-12-06T01:15:12.690Z,3.80
2018-12-06T01:17:44.612Z,3.80
2018-12-06T01:20:12.957Z,3.80
2018-12-06T01:22:40.432Z,3.80
2018-12-06T01:25:08.841Z,3.90
2018-12-06T01:27:36.359Z,3.90
2018-12-06T01:30:05.074Z,3.90
2018-12-06T01:32:33.478Z,3.90
2018-12-06T01:35:00.975Z,3.80
2018-12-06T01:37:28.494Z,3.80
2018-12-06T01:39:56.131Z,3.80
2018-12-06T01:42:23.574Z,3.80
2018-12-06T01:44:51.056Z,3.80
2018-12-06T01:47:18.607Z,3.80
2018-12-06T01:49:46.113Z,3.80
2018-12-06T01:52:13.543Z,3.80
2018-12-06T01:54:41.962Z,3.80
2018-12-06T01:57:09.417Z,3.80
2018-12-06T01:59:36.863Z,3.80
2018-12-06T02:02:04.410Z,3.80
2018-12-06T02:04:31.889Z,3.80
2018-12-06T02:06:59.384Z,3.70
2018-12-06T02:09:26.906Z,3.80
2018-12-06T02:11:54.325Z,3.80
2018-12-06T02:14:21.912Z,3.80
2018-12-06T02:16:49.955Z,3.80
2018-12-06T02:19:21.074Z,3.80
2018-12-06T02:24:22.273Z,3.80
2018-12-06T02:26:49.745Z,3.80
2018-12-06T02:29:17.225Z,3.80
2018-12-06T02:31:45.523Z,3.80
2018-12-06T02:34:12.967Z,3.90
2018-12-06T02:36:40.426Z,3.90
2018-12-06T02:39:07.969Z,3.90
2018-12-06T02:41:35.525Z,3.90
2018-12-06T02:44:03.070Z,3.90
2018-12-06T02:46:30.517Z,3.90
2018-12-06T02:49:02.450Z,3.90
2018-12-06T02:51:29.924Z,3.90
2018-12-06T02:53:57.393Z,3.80
2018-12-06T02:56:24.832Z,3.70
2018-12-06T02:58:52.306Z,3.80
2018-12-06T03:01:19.742Z,3.80
2018-12-06T03:03:47.204Z,3.80
2018-12-06T03:06:14.659Z,3.80
2018-12-06T03:08:42.170Z,3.90
2018-12-06T03:11:09.755Z,3.80
2018-12-06T03:13:37.952Z,3.90
2018-12-06T03:16:05.428Z,3.90
2018-12-06T03:18:32.960Z,3.90
2018-12-06T03:21:00.405Z,3.90
2018-12-06T03:23:27.876Z,3.80
2018-12-06T03:25:55.379Z,3.80
2018-12-06T03:28:22.841Z,3.80
2018-12-06T03:30:50.385Z,3.80
2018-12-06T03:33:18.002Z,3.80
2018-12-06T03:35:45.863Z,3.80
2018-12-06T03:38:13.376Z,3.80
2018-12-06T03:40:40.820Z,3.80
2018-12-06T03:43:08.294Z,3.80
2018-12-06T03:45:35.778Z,3.90
2018-12-06T03:48:03.263Z,3.90
2018-12-06T03:50:33.816Z,3.90
2018-12-06T03:53:01.406Z,3.90
2018-12-06T03:55:28.918Z,3.90
2018-12-06T03:57:56.433Z,3.90
2018-12-06T04:00:24.368Z,3.80
2018-12-06T04:02:51.833Z,3.80
2018-12-06T04:05:22.719Z,3.80
2018-12-06T04:07:50.380Z,3.80
2018-12-06T04:10:17.837Z,3.80
2018-12-06T04:12:45.409Z,3.90
2018-12-06T04:15:13.772Z,3.90
2018-12-06T04:17:41.228Z,3.80
2018-12-06T04:20:08.677Z,3.90
2018-12-06T04:22:36.150Z,3.80
2018-12-06T04:25:03.723Z,3.80
2018-12-06T04:27:31.189Z,3.80
2018-12-06T04:29:58.646Z,3.90
2018-12-06T04:32:26.216Z,3.90
2018-12-06T04:34:53.805Z,3.80
2018-12-06T04:37:21.821Z,3.90
2018-12-06T04:39:49.339Z,3.90
2018-12-06T04:42:16.800Z,3.90
2018-12-06T04:44:44.292Z,3.80
2018-12-06T04:47:11.733Z,3.80
2018-12-06T04:49:39.303Z,3.80
2018-12-06T04:52:07.035Z,3.70
2018-12-06T04:54:34.503Z,3.70
2018-12-06T04:57:01.969Z,3.70
2018-12-06T04:59:30.366Z,3.60
2018-12-06T05:01:57.801Z,3.60
2018-12-06T05:04:25.704Z,3.60
2018-12-06T05:06:53.140Z,3.60
2018-12-06T05:09:20.577Z,3.60
2018-12-06T05:11:48.054Z,3.60
2018-12-06T05:14:15.615Z,3.70
2018-12-06T05:16:44.181Z,3.70
2018-12-06T05:19:11.710Z,3.70
2018-12-06T05:21:43.013Z,3.80
2018-12-06T05:24:10.494Z,3.80
2018-12-06T05:26:38.772Z,3.80
2018-12-06T05:29:06.222Z,3.90
2018-12-06T05:31:33.700Z,3.90
2018-12-06T05:34:01.148Z,3.90
2018-12-06T05:36:28.619Z,3.90
2018-12-06T05:38:56.226Z,3.90
2018-12-06T05:41:23.771Z,3.90
2018-12-06T05:43:51.386Z,3.80
2018-12-06T05:46:18.816Z,3.80
2018-12-06T05:48:47.203Z,3.80
2018-12-06T05:51:14.692Z,3.80
2018-12-06T05:53:42.334Z,3.80
2018-12-06T05:58:43.745Z,3.90
2018-12-06T06:01:12.509Z,3.90
2018-12-06T06:03:40.028Z,3.90
2018-12-06T06:06:07.480Z,4.00
2018-12-06T06:08:34.949Z,3.90
2018-12-06T06:11:02.468Z,3.90
2018-12-06T06:13:31.085Z,4.00
2018-12-06T06:15:58.602Z,4.00
2018-12-06T06:18:27.033Z,4.00
2018-12-06T06:20:54.857Z,4.00
2018-12-06T06:23:26.018Z,4.00
2018-12-06T06:25:53.505Z,4.00
2018-12-06T06:30:54.942Z,4.00
2018-12-06T06:33:22.697Z,4.10
2018-12-06T06:35:50.186Z,4.10
2018-12-06T06:38:22.055Z,4.10
2018-12-06T06:40:49.817Z,4.20
2018-12-06T06:43:17.278Z,4.20
2018-12-06T06:45:44.945Z,4.20
2018-12-06T06:48:12.516Z,4.20
2018-12-06T06:50:40.008Z,4.30
2018-12-06T06:53:12.106Z,4.20
2018-12-06T06:55:39.572Z,4.20
2018-12-06T06:58:07.054Z,4.30
2018-12-06T07:00:34.599Z,4.30
2018-12-06T07:03:02.132Z,4.30
2018-12-06T07:05:30.553Z,4.30
2018-12-06T07:07:58.091Z,4.30
2018-12-06T07:10:25.575Z,4.20
2018-12-06T07:12:53.813Z,4.20
2018-12-06T07:15:21.326Z,4.20
2018-12-06T07:17:49.759Z,4.30
2018-12-06T07:20:17.216Z,4.40
2018-12-06T07:22:44.776Z,4.40
2018-12-06T07:25:12.322Z,4.40
2018-12-06T07:27:39.821Z,4.40
2018-12-06T07:30:12.356Z,4.40
2018-12-06T07:32:36.765Z,4.40
2018-12-06T07:35:04.538Z,4.50
2018-12-06T07:37:32.104Z,4.50
2018-12-06T07:39:59.537Z,4.50
2018-12-06T07:42:27.001Z,4.50
2018-12-06T07:44:54.491Z,4.50
2018-12-06T07:47:22.699Z,4.50
2018-12-06T07:49:50.156Z,4.50
2018-12-06T07:52:17.655Z,4.60
2018-12-06T07:54:45.135Z,4.60
2018-12-06T07:57:12.614Z,4.60
2018-12-06T07:59:40.313Z,4.70
2018-12-06T08:02:07.786Z,4.70
2018-12-06T08:04:35.230Z,4.70
2018-12-06T08:07:02.767Z,4.80
2018-12-06T08:09:31.135Z,4.80
2018-12-06T08:11:58.612Z,4.80
2018-12-06T08:14:26.133Z,4.90
2018-12-06T08:16:53.646Z,4.90
2018-12-06T08:19:21.106Z,4.90
2018-12-06T08:21:48.576Z,5.00
2018-12-06T08:24:16.098Z,5.10
2018-12-06T08:26:43.855Z,5.10
2018-12-06T08:29:11.516Z,5.20
2018-12-06T08:31:39.127Z,5.30
2018-12-06T08:34:06.689Z,5.40
2018-12-06T08:36:34.228Z,5.40
2018-12-06T08:39:01.693Z,5.40
2018-12-06T08:41:29.419Z,5.50
2018-12-06T08:43:57.182Z,5.50
2018-12-06T08:46:24.625Z,5.50
2018-12-06T08:48:52.130Z,5.60
2018-12-06T08:51:19.606Z,5.60
2018-12-06T08:53:47.854Z,5.50
2018-12-06T08:56:18.822Z,5.50
2018-12-06T08:58:46.301Z,5.50
2018-12-06T09:01:13.781Z,5.40
2018-12-06T09:03:41.371Z,5.40
2018-12-06T09:06:09.105Z,5.40
2018-12-06T09:08:36.872Z,5.30
2018-12-06T09:11:07.597Z,5.30
2018-12-06T09:13:35.096Z,5.30
2018-12-06T09:16:02.562Z,5.30
2018-12-06T09:18:30.031Z,5.30
2018-12-06T09:20:57.473Z,5.30
2018-12-06T09:23:26.018Z,5.20
2018-12-06T09:25:53.482Z,5.20
2018-12-06T09:28:21.002Z,5.20
2018-12-06T09:30:48.711Z,5.20
2018-12-06T09:33:16.166Z,5.20
2018-12-06T09:35:43.650Z,5.30
2018-12-06T09:38:11.190Z,5.30
2018-12-06T09:40:38.829Z,5.30
2018-12-06T09:43:06.314Z,5.30
2018-12-06T09:45:34.517Z,5.30
2018-12-06T09:48:02.020Z,5.40
2018-12-06T09:50:29.453Z,5.40
2018-12-06T09:52:56.914Z,5.40
2018-12-06T09:55:24.403Z,5.40
2018-12-06T09:57:51.959Z,5.40
2018-12-06T10:00:19.621Z,5.40
2018-12-06T10:02:48.025Z,5.50
2018-12-06T10:05:15.566Z,5.50
2018-12-06T10:07:43.146Z,5.50
2018-12-06T10:10:10.601Z,5.70
2018-12-06T10:12:38.047Z,5.80
2018-12-06T10:15:05.599Z,5.80
2018-12-06T10:17:33.067Z,5.90
2018-12-06T10:20:00.551Z,6.00
2018-12-06T10:22:27.987Z,6.10
2018-12-06T10:24:56.373Z,6.10
2018-12-06T10:27:23.861Z,6.10
2018-12-06T10:29:51.308Z,6.20
2018-12-06T10:32:18.761Z,6.30
2018-12-06T10:34:53.235Z,6.40
2018-12-06T10:37:15.930Z,6.40
2018-12-06T10:39:43.460Z,6.40
2018-12-06T10:42:10.907Z,6.40
2018-12-06T10:44:38.389Z,6.40
2018-12-06T10:47:05.829Z,6.40
2018-12-06T10:49:33.292Z,6.50
2018-12-06T10:52:00.785Z,6.50
2018-12-06T10:54:28.267Z,6.60
2018-12-06T10:56:59.438Z,6.60
2018-12-06T10:59:26.929Z,6.70
2018-12-06T11:05:01.710Z,6.70
2018-12-06T11:07:29.190Z,6.80
2018-12-06T11:09:56.763Z,6.80
2018-12-06T11:12:25.133Z,6.80
2018-12-06T11:14:52.565Z,6.90
2018-12-06T11:17:20.046Z,6.90
2018-12-06T11:19:47.491Z,6.90
2018-12-06T11:22:14.990Z,7.00
2018-12-06T11:24:42.428Z,7.10
2018-12-06T11:27:09.877Z,7.30
2018-12-06T11:29:37.508Z,7.40
2018-12-06T11:32:04.961Z,7.50
2018-12-06T11:34:33.147Z,7.60
2018-12-06T11:37:00.943Z,7.60
2018-12-06T11:39:28.453Z,7.70
2018-12-06T11:41:55.942Z,7.70
2018-12-06T11:44:23.427Z,7.80
2018-12-06T11:46:50.885Z,7.80
2018-12-06T11:49:18.442Z,7.90
2018-12-06T11:51:46.645Z,7.90
2018-12-06T11:54:14.134Z,8.00
2018-12-06T11:56:41.585Z,8.00
2018-12-06T11:59:12.451Z,7.90
2018-12-06T12:01:40.038Z,7.90
2018-12-06T12:04:07.479Z,7.90
2018-12-06T12:06:34.942Z,8.00
2018-12-06T12:09:02.440Z,8.00
2018-12-06T12:11:30.070Z,8.10
2018-12-06T12:13:57.512Z,8.10
2018-12-06T12:16:25.375Z,8.10
2018-12-06T12:18:52.904Z,8.10
2018-12-06T12:21:20.406Z,8.00
2018-12-06T12:23:47.860Z,8.10
2018-12-06T12:26:15.298Z,8.10
2018-12-06T12:28:46.920Z,8.20
2018-12-06T12:31:14.713Z,8.30
2018-12-06T12:33:42.284Z,8.40
2018-12-06T12:36:10.117Z,8.50
2018-12-06T12:38:37.574Z,8.70
2018-12-06T12:41:05.059Z,8.90
2018-12-06T12:43:32.532Z,9.00
2018-12-06T12:46:03.658Z,9.10
2018-12-06T12:48:31.133Z,9.10
2018-12-06T12:50:58.805Z,9.20
2018-12-06T12:53:26.279Z,9.20
2018-12-06T12:55:53.723Z,9.20
2018-12-06T12:58:21.236Z,9.10
2018-12-06T13:00:48.738Z,9.00
2018-12-06T13:03:16.211Z,9.00
2018-12-06T13:05:43.899Z,8.90
2018-12-06T13:08:12.330Z,8.80
2018-12-06T13:10:39.781Z,8.70
2018-12-06T13:13:07.522Z,8.70
2018-12-06T13:15:35.060Z,8.70
2018-12-06T13:18:02.565Z,8.60
2018-12-06T13:20:30.123Z,8.70
2018-12-06T13:22:57.590Z,8.80
2018-12-06T13:25:25.318Z,8.80
2018-12-06T13:27:53.081Z,8.90
2018-12-06T13:30:24.355Z,9.00
2018-12-06T13:32:51.828Z,9.00
2018-12-06T13:35:19.357Z,9.10
2018-12-06T13:37:47.105Z,9.20
2018-12-06T13:40:14.638Z,9.30
2018-12-06T13:42:42.125Z,9.30
2018-12-06T13:45:10.819Z,9.40
2018-12-06T13:47:38.476Z,9.30
2018-12-06T13:50:06.623Z,9.40
2018-12-06T13:52:34.998Z,9.40
2018-12-06T13:55:02.525Z,9.40
2018-12-06T13:57:29.966Z,9.40
2018-12-06T13:59:57.427Z,9.50
2018-12-06T14:02:24.945Z,9.50
2018-12-06T14:04:52.383Z,9.60
2018-12-06T14:07:19.843Z,9.60
2018-12-06T14:09:47.417Z,9.60
2018-12-06T14:12:14.895Z,9.60
2018-12-06T14:14:42.381Z,9.60
2018-12-06T14:17:09.886Z,9.60
2018-12-06T14:19:37.926Z,9.60
2018-12-06T14:22:05.481Z,9.60
2018-12-06T14:24:32.911Z,9.60
2018-12-06T14:27:00.365Z,9.50
2018-12-06T14:29:27.833Z,9.50
2018-12-06T14:31:55.336Z,9.50
2018-12-06T14:34:22.830Z,9.50
2018-12-06T14:37:01.420Z,9.40
2018-12-06T14:39:19.706Z,9.40
2018-12-06T14:41:47.185Z,9.40
2018-12-06T14:44:14.630Z,9.40
2018-12-06T14:46:53.118Z,9.40
2018-12-06T14:49:20.878Z,9.40
2018-12-06T14:51:48.322Z,9.40
2018-12-06T14:54:15.794Z,9.40
2018-12-06T14:56:43.301Z,9.40
2018-12-06T14:59:11.575Z,9.40
2018-12-06T15:01:39.006Z,9.40
2018-12-06T15:04:06.566Z,9.40
2018-12-06T15:06:37.486Z,9.30
2018-12-06T15:09:07.264Z,9.30
2018-12-06T15:11:34.783Z,9.30
2018-12-06T15:14:02.392Z,9.30
2018-12-06T15:16:41.243Z,9.30
2018-12-06T15:19:08.724Z,9.30
2018-12-06T15:21:36.381Z,9.30
2018-12-06T15:24:03.897Z,9.30
2018-12-06T15:26:31.497Z,9.30
2018-12-06T15:28:59.023Z,9.30
2018-12-06T15:31:38.571Z,9.30
2018-12-06T15:34:06.021Z,9.30
2018-12-06T15:36:33.481Z,9.30
2018-12-06T15:39:00.950Z,9.30
2018-12-06T15:41:28.414Z,9.40
2018-12-06T15:43:55.882Z,9.40
2018-12-06T15:46:23.373Z,9.40
2018-12-06T15:48:50.914Z,9.40
2018-12-06T15:51:18.368Z,9.40
2018-12-06T15:53:46.742Z,9.40
2018-12-06T15:56:14.271Z,9.40
2018-12-06T15:58:41.709Z,9.40
2018-12-06T16:01:09.178Z,9.40
2018-12-06T16:03:36.609Z,9.40
2018-12-06T16:06:04.217Z,9.40
2018-12-06T16:08:32.140Z,9.40
2018-12-06T16:10:59.595Z,9.40
2018-12-06T16:13:27.049Z,9.50
2018-12-06T16:15:55.438Z,9.50
2018-12-06T16:18:22.899Z,9.50
2018-12-06T16:20:50.369Z,9.40
2018-12-06T16:23:17.812Z,9.40
2018-12-06T16:25:45.277Z,9.40
2018-12-06T16:28:12.725Z,9.40
2018-12-06T16:30:40.183Z,9.50
2018-12-06T16:33:07.633Z,9.50
2018-12-06T16:35:35.174Z,9.50
2018-12-06T16:38:03.597Z,9.40
2018-12-06T16:40:31.480Z,9.50
2018-12-06T16:42:58.989Z,9.50
2018-12-06T16:45:26.533Z,9.60
2018-12-06T16:47:57.944Z,9.60
2018-12-06T16:50:25.669Z,9.60
2018-12-06T16:52:53.438Z,9.60
2018-12-06T16:55:20.904Z,9.50
2018-12-06T16:57:48.365Z,9.50
2018-12-06T17:00:15.931Z,9.50
2018-12-06T17:02:43.381Z,9.40
2018-12-06T17:05:10.900Z,9.40
2018-12-06T17:07:38.623Z,9.30
2018-12-06T17:10:06.124Z,9.20
2018-12-06T17:12:33.575Z,9.10
2018-12-06T17:15:01.655Z,9.00
2018-12-06T17:17:29.091Z,8.90
2018-12-06T17:19:56.537Z,8.90
2018-12-06T17:22:24.016Z,8.90
2018-12-06T17:24:51.519Z,9.00
2018-12-06T17:27:18.976Z,9.00
2018-12-06T17:29:46.894Z,9.10
2018-12-06T17:32:15.271Z,9.20
2018-12-06T17:34:42.786Z,9.20
2018-12-06T17:37:10.282Z,9.20
2018-12-06T17:39:38.019Z,9.30
2018-12-06T17:42:05.497Z,9.30
2018-12-06T17:44:33.053Z,9.30
2018-12-06T17:47:00.556Z,9.30
2018-12-06T17:49:31.627Z,9.30
2018-12-06T17:51:59.381Z,9.30
2018-12-06T17:54:27.190Z,9.30
2018-12-06T17:56:54.724Z,9.30
2018-12-06T17:59:22.191Z,9.20
2018-12-06T18:01:49.639Z,9.30
2018-12-06T18:04:20.781Z,9.20
2018-12-06T18:06:48.735Z,9.20
2018-12-06T18:09:16.273Z,9.30
2018-12-06T18:11:43.810Z,9.30
2018-12-06T18:14:11.557Z,9.30
2018-12-06T18:16:39.012Z,9.30
2018-12-06T18:19:06.518Z,9.30
2018-12-06T18:21:34.034Z,9.30
2018-12-06T18:27:06.518Z,9.30
2018-12-06T18:32:11.043Z,9.40
2018-12-06T18:34:41.670Z,9.40
2018-12-06T18:37:10.277Z,9.40
2018-12-06T18:39:37.760Z,9.40
2018-12-06T18:42:05.373Z,9.30
2018-12-06T18:44:32.878Z,9.30
2018-12-06T18:47:00.391Z,9.30
2018-12-06T18:49:28.818Z,9.40
2018-12-06T18:51:56.259Z,9.30
2018-12-06T18:54:23.728Z,9.30
2018-12-06T18:56:51.173Z,9.20
2018-12-06T18:59:18.693Z,9.20
2018-12-06T19:01:46.304Z,9.30
2018-12-06T19:04:14.062Z,9.30
2018-12-06T19:06:42.608Z,9.20
2018-12-06T19:09:10.078Z,9.20
2018-12-06T19:11:37.858Z,9.20
2018-12-06T19:14:05.432Z,9.20
2018-12-06T19:16:33.047Z,9.20
2018-12-06T19:19:00.538Z,9.20
2018-12-06T19:21:28.091Z,9.20
2018-12-06T19:23:56.097Z,9.20
2018-12-06T19:26:23.584Z,9.30
2018-12-06T19:28:51.035Z,9.20
2018-12-06T19:31:18.530Z,9.20
2018-12-06T19:33:46.011Z,9.20
2018-12-06T19:36:13.490Z,9.20
2018-12-06T19:38:41.077Z,9.20
2018-12-06T19:41:08.613Z,9.30
2018-12-06T19:43:36.174Z,9.30
2018-12-06T19:46:04.717Z,9.30
2018-12-06T19:48:32.183Z,9.20
2018-12-06T19:50:59.622Z,9.30
2018-12-06T19:53:27.163Z,9.30
2018-12-06T19:55:54.635Z,9.20
2018-12-06T19:58:22.094Z,9.30
2018-12-06T20:00:49.571Z,9.20
2018-12-06T20:03:17.108Z,9.30
2018-12-06T20:05:44.654Z,9.30
2018-12-06T20:08:12.535Z,9.30
2018-12-06T20:10:40.074Z,9.20
2018-12-06T20:13:08.703Z,9.20
2018-12-06T20:15:36.132Z,9.20
2018-12-06T20:18:03.886Z,9.10
2018-12-06T20:20:32.071Z,9.10
2018-12-06T20:22:59.543Z,9.10
2018-12-06T20:25:27.029Z,9.10
2018-12-06T20:27:54.478Z,9.00
2018-12-06T20:30:21.957Z,9.00
2018-12-06T20:32:49.416Z,9.00
2018-12-06T20:35:16.885Z,9.10
2018-12-06T20:37:52.392Z,9.10
2018-12-06T20:40:19.848Z,9.10
2018-12-06T20:42:47.284Z,9.10
2018-12-06T20:45:16.151Z,9.10
2018-12-06T20:47:43.605Z,9.20
2018-12-06T20:50:11.146Z,9.20
2018-12-06T20:52:41.482Z,9.20
2018-12-06T20:55:09.011Z,9.20
2018-12-06T20:57:37.331Z,9.30
2018-12-06T21:00:06.808Z,9.30
2018-12-06T21:02:34.504Z,9.40
2018-12-06T21:05:01.972Z,9.40
2018-12-06T21:07:33.121Z,9.40
2018-12-06T21:10:01.433Z,9.40
2018-12-06T21:12:28.925Z,9.40
2018-12-06T21:14:56.693Z,9.40
2018-12-06T21:17:24.246Z,9.40
2018-12-06T21:19:51.723Z,9.40
2018-12-06T21:22:19.908Z,9.50
2018-12-06T21:24:47.358Z,9.50
2018-12-06T21:27:14.817Z,9.50
2018-12-06T21:29:42.277Z,9.40
2018-12-06T21:32:09.771Z,9.40
2018-12-06T21:34:37.218Z,9.40
2018-12-06T21:37:04.710Z,9.40
2018-12-06T21:39:32.169Z,9.40
2018-12-06T21:41:59.639Z,9.40
2018-12-06T21:44:28.058Z,9.40
2018-12-06T21:46:55.825Z,9.40
2018-12-06T21:49:23.261Z,9.50
2018-12-06T21:51:50.719Z,9.50
2018-12-06T21:54:18.212Z,9.50
2018-12-06T21:56:45.741Z,9.50
2018-12-06T21:59:13.214Z,9.50
2018-12-06T22:01:41.640Z,9.50
2018-12-06T22:04:09.117Z,9.40
2018-12-06T22:06:36.550Z,9.40
2018-12-06T22:09:09.870Z,9.40
2018-12-06T22:11:37.370Z,9.40
2018-12-06T22:14:04.941Z,9.40
2018-12-06T22:16:32.418Z,9.30
2018-12-06T22:18:59.874Z,9.40
2018-12-06T22:21:27.330Z,9.40
2018-12-06T22:23:55.757Z,9.50
2018-12-06T22:26:23.185Z,9.50
2018-12-06T22:28:50.639Z,9.50
2018-12-06T22:31:18.094Z,9.50
2018-12-06T22:33:45.529Z,9.50
2018-12-06T22:36:13.110Z,9.50
2018-12-06T22:38:40.542Z,9.50
2018-12-06T22:41:08.006Z,9.50
2018-12-06T22:43:35.499Z,9.50
2018-12-06T22:46:03.098Z,9.50
2018-12-06T22:48:30.698Z,9.50
2018-12-06T22:50:58.834Z,9.50
2018-12-06T22:53:26.306Z,9.50
2018-12-06T22:55:53.744Z,9.50
2018-12-06T22:58:21.230Z,9.50
2018-12-06T23:00:51.078Z,9.50
2018-12-06T23:03:18.658Z,9.50
2018-12-06T23:05:46.495Z,9.50
2018-12-06T23:08:13.943Z,9.60
2018-12-06T23:10:41.404Z,9.60
2018-12-06T23:13:08.882Z,9.60
2018-12-06T23:15:36.426Z,9.70
2018-12-06T23:18:03.932Z,9.70
2018-12-06T23:20:31.976Z,9.70
2018-12-06T23:23:01.674Z,9.70
2018-12-06T23:25:29.201Z,9.70
2018-12-06T23:27:56.641Z,9.70
2018-12-06T23:30:24.131Z,9.70
2018-12-06T23:32:51.890Z,9.70
2018-12-06T23:35:19.356Z,9.70
2018-12-06T23:37:47.116Z,9.70
2018-12-06T23:40:14.637Z,9.70
2018-12-06T23:42:42.089Z,9.70
2018-12-06T23:45:09.927Z,9.80
2018-12-06T23:47:37.553Z,9.80
2018-12-06T23:50:06.353Z,9.80
2018-12-06T23:52:33.826Z,9.80
2018-12-06T23:55:09.692Z,9.80
2018-12-06T23:57:37.129Z,9.80
